sensor_id;sensor_type;location;lat;lon;timestamp;P1;durP1;ratioP1;P2;durP2;ratioP2
61015;SDS011;46902;52.920;6.536;2022-10-29T00:02:04;16.50;;;3.53;;
61015;SDS011;46902;52.920;6.536;2022-10-29T00:04:29;17.73;;;3.80;;
61015;SDS011;46902;52.920;6.536;2022-10-29T00:06:55;12.52;;;3.50;;
61015;SDS011;46902;52.920;6.536;2022-10-29T00:09:21;16.27;;;3.42;;
61015;SDS011;46902;52.920;6.536;2022-10-29T00:11:46;16.98;;;3.75;;
61015;SDS011;46902;52.920;6.536;2022-10-29T00:14:12;22.92;;;4.55;;
61015;SDS011;46902;52.920;6.536;2022-10-29T00:16:38;12.52;;;3.65;;
61015;SDS011;46902;52.920;6.536;2022-10-29T00:19:04;18.15;;;4.13;;
61015;SDS011;46902;52.920;6.536;2022-10-29T00:21:30;15.15;;;4.00;;
61015;SDS011;46902;52.920;6.536;2022-10-29T00:23:56;15.00;;;3.75;;
61015;SDS011;46902;52.920;6.536;2022-10-29T00:26:22;17.45;;;4.38;;
61015;SDS011;46902;52.920;6.536;2022-10-29T00:28:52;13.30;;;3.90;;
61015;SDS011;46902;52.920;6.536;2022-10-29T00:31:19;16.70;;;4.10;;
61015;SDS011;46902;52.920;6.536;2022-10-29T00:33:45;18.83;;;5.07;;
61015;SDS011;46902;52.920;6.536;2022-10-29T00:36:12;19.52;;;4.30;;
61015;SDS011;46902;52.920;6.536;2022-10-29T00:38:39;14.48;;;3.50;;
61015;SDS011;46902;52.920;6.536;2022-10-29T00:41:06;10.00;;;3.78;;
61015;SDS011;46902;52.920;6.536;2022-10-29T00:43:35;16.67;;;3.78;;
61015;SDS011;46902;52.920;6.536;2022-10-29T00:46:03;12.57;;;3.60;;
61015;SDS011;46902;52.920;6.536;2022-10-29T00:48:33;17.48;;;4.57;;
61015;SDS011;46902;52.920;6.536;2022-10-29T00:51:03;13.68;;;3.88;;
61015;SDS011;46902;52.920;6.536;2022-10-29T00:53:32;17.27;;;3.10;;
61015;SDS011;46902;52.920;6.536;2022-10-29T00:56:02;8.80;;;2.58;;
61015;SDS011;46902;52.920;6.536;2022-10-29T00:58:28;6.60;;;2.17;;
61015;SDS011;46902;52.920;6.536;2022-10-29T01:00:54;10.95;;;3.13;;
61015;SDS011;46902;52.920;6.536;2022-10-29T01:03:19;15.50;;;3.45;;
61015;SDS011;46902;52.920;6.536;2022-10-29T01:05:45;11.88;;;3.47;;
61015;SDS011;46902;52.920;6.536;2022-10-29T01:08:12;13.98;;;2.80;;
61015;SDS011;46902;52.920;6.536;2022-10-29T01:13:18;14.95;;;3.22;;
61015;SDS011;46902;52.920;6.536;2022-10-29T01:18:37;12.23;;;2.60;;
61015;SDS011;46902;52.920;6.536;2022-10-29T01:24:15;14.70;;;2.90;;
61015;SDS011;46902;52.920;6.536;2022-10-29T01:29:43;13.52;;;3.72;;
61015;SDS011;46902;52.920;6.536;2022-10-29T01:32:18;12.65;;;3.20;;
61015;SDS011;46902;52.920;6.536;2022-10-29T01:34:53;18.90;;;4.13;;
61015;SDS011;46902;52.920;6.536;2022-10-29T01:37:42;14.65;;;3.47;;
61015;SDS011;46902;52.920;6.536;2022-10-29T01:40:33;14.57;;;3.83;;
61015;SDS011;46902;52.920;6.536;2022-10-29T01:43:19;12.50;;;3.33;;
61015;SDS011;46902;52.920;6.536;2022-10-29T01:45:58;14.32;;;4.22;;
61015;SDS011;46902;52.920;6.536;2022-10-29T01:48:34;16.42;;;4.20;;
61015;SDS011;46902;52.920;6.536;2022-10-29T01:51:03;18.25;;;3.70;;
61015;SDS011;46902;52.920;6.536;2022-10-29T01:53:40;13.57;;;3.42;;
61015;SDS011;46902;52.920;6.536;2022-10-29T01:56:06;15.38;;;3.75;;
61015;SDS011;46902;52.920;6.536;2022-10-29T01:58:32;14.30;;;4.20;;
61015;SDS011;46902;52.920;6.536;2022-10-29T02:01:10;15.50;;;4.03;;
61015;SDS011;46902;52.920;6.536;2022-10-29T02:04:18;12.20;;;3.03;;
61015;SDS011;46902;52.920;6.536;2022-10-29T02:06:59;12.52;;;3.45;;
61015;SDS011;46902;52.920;6.536;2022-10-29T02:09:44;17.02;;;3.30;;
61015;SDS011;46902;52.920;6.536;2022-10-29T02:12:21;16.00;;;3.38;;
61015;SDS011;46902;52.920;6.536;2022-10-29T02:15:04;14.88;;;3.35;;
61015;SDS011;46902;52.920;6.536;2022-10-29T02:17:35;12.10;;;2.75;;
61015;SDS011;46902;52.920;6.536;2022-10-29T02:20:05;16.88;;;3.72;;
61015;SDS011;46902;52.920;6.536;2022-10-29T02:22:33;10.88;;;3.33;;
61015;SDS011;46902;52.920;6.536;2022-10-29T02:24:58;10.95;;;3.00;;
61015;SDS011;46902;52.920;6.536;2022-10-29T02:27:24;17.42;;;4.30;;
61015;SDS011;46902;52.920;6.536;2022-10-29T02:29:50;18.20;;;5.00;;
61015;SDS011;46902;52.920;6.536;2022-10-29T02:32:15;13.95;;;4.82;;
61015;SDS011;46902;52.920;6.536;2022-10-29T02:34:41;16.50;;;5.60;;
61015;SDS011;46902;52.920;6.536;2022-10-29T02:37:06;18.42;;;6.22;;
61015;SDS011;46902;52.920;6.536;2022-10-29T02:39:32;17.10;;;6.00;;
61015;SDS011;46902;52.920;6.536;2022-10-29T02:41:58;19.42;;;6.85;;
61015;SDS011;46902;52.920;6.536;2022-10-29T02:44:23;17.75;;;6.68;;
61015;SDS011;46902;52.920;6.536;2022-10-29T02:46:49;45.55;;;8.18;;
61015;SDS011;46902;52.920;6.536;2022-10-29T02:49:14;34.38;;;7.75;;
61015;SDS011;46902;52.920;6.536;2022-10-29T02:51:40;14.52;;;6.38;;
61015;SDS011;46902;52.920;6.536;2022-10-29T02:54:05;39.53;;;7.28;;
61015;SDS011;46902;52.920;6.536;2022-10-29T02:56:31;24.42;;;6.88;;
61015;SDS011;46902;52.920;6.536;2022-10-29T02:58:57;14.40;;;6.28;;
61015;SDS011;46902;52.920;6.536;2022-10-29T03:01:22;19.45;;;6.82;;
61015;SDS011;46902;52.920;6.536;2022-10-29T03:03:48;24.63;;;6.25;;
61015;SDS011;46902;52.920;6.536;2022-10-29T03:06:15;166.43;;;8.55;;
61015;SDS011;46902;52.920;6.536;2022-10-29T03:08:42;89.55;;;7.65;;
61015;SDS011;46902;52.920;6.536;2022-10-29T03:11:08;46.88;;;6.57;;
61015;SDS011;46902;52.920;6.536;2022-10-29T03:13:34;22.00;;;6.20;;
61015;SDS011;46902;52.920;6.536;2022-10-29T03:16:00;22.30;;;6.57;;
61015;SDS011;46902;52.920;6.536;2022-10-29T03:18:25;19.00;;;7.00;;
61015;SDS011;46902;52.920;6.536;2022-10-29T03:20:51;21.77;;;6.68;;
61015;SDS011;46902;52.920;6.536;2022-10-29T03:23:16;12.98;;;6.55;;
61015;SDS011;46902;52.920;6.536;2022-10-29T03:25:42;16.20;;;6.53;;
61015;SDS011;46902;52.920;6.536;2022-10-29T03:28:08;18.27;;;6.47;;
61015;SDS011;46902;52.920;6.536;2022-10-29T03:30:33;16.75;;;6.40;;
61015;SDS011;46902;52.920;6.536;2022-10-29T03:32:59;10.60;;;5.78;;
61015;SDS011;46902;52.920;6.536;2022-10-29T03:35:24;11.27;;;5.85;;
61015;SDS011;46902;52.920;6.536;2022-10-29T03:37:50;21.02;;;6.53;;
61015;SDS011;46902;52.920;6.536;2022-10-29T03:40:16;10.23;;;6.30;;
61015;SDS011;46902;52.920;6.536;2022-10-29T03:42:43;9.20;;;6.28;;
61015;SDS011;46902;52.920;6.536;2022-10-29T03:45:09;10.18;;;6.55;;
61015;SDS011;46902;52.920;6.536;2022-10-29T03:47:35;10.40;;;7.32;;
61015;SDS011;46902;52.920;6.536;2022-10-29T03:50:01;9.65;;;6.57;;
61015;SDS011;46902;52.920;6.536;2022-10-29T03:52:27;14.13;;;7.05;;
61015;SDS011;46902;52.920;6.536;2022-10-29T03:54:52;14.20;;;6.60;;
61015;SDS011;46902;52.920;6.536;2022-10-29T03:57:18;16.20;;;7.60;;
61015;SDS011;46902;52.920;6.536;2022-10-29T03:59:44;14.23;;;6.95;;
61015;SDS011;46902;52.920;6.536;2022-10-29T04:02:09;23.33;;;9.07;;
61015;SDS011;46902;52.920;6.536;2022-10-29T04:04:36;24.05;;;9.18;;
61015;SDS011;46902;52.920;6.536;2022-10-29T04:07:02;13.93;;;7.53;;
61015;SDS011;46902;52.920;6.536;2022-10-29T04:09:28;22.08;;;9.15;;
61015;SDS011;46902;52.920;6.536;2022-10-29T04:11:53;14.48;;;7.65;;
61015;SDS011;46902;52.920;6.536;2022-10-29T04:14:19;23.42;;;8.98;;
61015;SDS011;46902;52.920;6.536;2022-10-29T04:16:45;26.40;;;8.27;;
61015;SDS011;46902;52.920;6.536;2022-10-29T04:19:10;19.42;;;8.77;;
61015;SDS011;46902;52.920;6.536;2022-10-29T04:21:36;28.75;;;9.02;;
61015;SDS011;46902;52.920;6.536;2022-10-29T04:24:02;37.08;;;9.45;;
61015;SDS011;46902;52.920;6.536;2022-10-29T04:26:27;31.00;;;9.75;;
61015;SDS011;46902;52.920;6.536;2022-10-29T04:28:53;36.53;;;11.32;;
61015;SDS011;46902;52.920;6.536;2022-10-29T04:31:18;44.60;;;11.05;;
61015;SDS011;46902;52.920;6.536;2022-10-29T04:33:44;60.95;;;11.55;;
61015;SDS011;46902;52.920;6.536;2022-10-29T04:36:10;73.80;;;12.82;;
61015;SDS011;46902;52.920;6.536;2022-10-29T04:38:36;103.72;;;12.55;;
61015;SDS011;46902;52.920;6.536;2022-10-29T04:41:01;67.32;;;12.38;;
61015;SDS011;46902;52.920;6.536;2022-10-29T04:43:27;75.43;;;12.23;;
61015;SDS011;46902;52.920;6.536;2022-10-29T04:45:54;48.83;;;11.32;;
61015;SDS011;46902;52.920;6.536;2022-10-29T04:48:21;57.47;;;11.25;;
61015;SDS011;46902;52.920;6.536;2022-10-29T04:50:47;45.72;;;12.05;;
61015;SDS011;46902;52.920;6.536;2022-10-29T04:53:13;47.38;;;11.82;;
61015;SDS011;46902;52.920;6.536;2022-10-29T04:55:40;53.65;;;12.27;;
61015;SDS011;46902;52.920;6.536;2022-10-29T04:58:06;33.28;;;11.13;;
61015;SDS011;46902;52.920;6.536;2022-10-29T05:00:35;24.38;;;10.95;;
61015;SDS011;46902;52.920;6.536;2022-10-29T05:03:01;28.23;;;9.93;;
61015;SDS011;46902;52.920;6.536;2022-10-29T05:05:27;31.08;;;11.45;;
61015;SDS011;46902;52.920;6.536;2022-10-29T05:07:59;27.42;;;10.95;;
61015;SDS011;46902;52.920;6.536;2022-10-29T05:10:27;34.30;;;11.52;;
61015;SDS011;46902;52.920;6.536;2022-10-29T05:12:58;35.45;;;11.77;;
61015;SDS011;46902;52.920;6.536;2022-10-29T05:15:26;31.25;;;11.90;;
61015;SDS011;46902;52.920;6.536;2022-10-29T05:17:52;31.25;;;12.10;;
61015;SDS011;46902;52.920;6.536;2022-10-29T05:20:19;30.08;;;12.15;;
61015;SDS011;46902;52.920;6.536;2022-10-29T05:22:45;38.53;;;13.70;;
61015;SDS011;46902;52.920;6.536;2022-10-29T05:25:10;30.63;;;11.50;;
61015;SDS011;46902;52.920;6.536;2022-10-29T05:27:36;23.58;;;10.32;;
61015;SDS011;46902;52.920;6.536;2022-10-29T05:30:01;30.85;;;12.68;;
61015;SDS011;46902;52.920;6.536;2022-10-29T05:32:27;34.80;;;12.15;;
61015;SDS011;46902;52.920;6.536;2022-10-29T05:34:53;31.25;;;12.70;;
61015;SDS011;46902;52.920;6.536;2022-10-29T05:37:19;33.67;;;12.32;;
61015;SDS011;46902;52.920;6.536;2022-10-29T05:39:44;40.10;;;12.20;;
61015;SDS011;46902;52.920;6.536;2022-10-29T05:42:10;36.33;;;13.57;;
61015;SDS011;46902;52.920;6.536;2022-10-29T05:44:35;40.13;;;13.48;;
61015;SDS011;46902;52.920;6.536;2022-10-29T05:47:01;35.67;;;14.27;;
61015;SDS011;46902;52.920;6.536;2022-10-29T05:49:26;35.05;;;12.88;;
61015;SDS011;46902;52.920;6.536;2022-10-29T05:51:52;48.70;;;15.75;;
61015;SDS011;46902;52.920;6.536;2022-10-29T05:54:17;46.47;;;15.07;;
61015;SDS011;46902;52.920;6.536;2022-10-29T05:56:43;34.63;;;14.82;;
61015;SDS011;46902;52.920;6.536;2022-10-29T05:59:08;33.97;;;14.43;;
61015;SDS011;46902;52.920;6.536;2022-10-29T06:01:34;31.70;;;13.73;;
61015;SDS011;46902;52.920;6.536;2022-10-29T06:03:59;39.80;;;15.13;;
61015;SDS011;46902;52.920;6.536;2022-10-29T06:06:25;35.45;;;15.77;;
61015;SDS011;46902;52.920;6.536;2022-10-29T06:08:51;32.22;;;15.35;;
61015;SDS011;46902;52.920;6.536;2022-10-29T06:11:17;30.52;;;14.20;;
61015;SDS011;46902;52.920;6.536;2022-10-29T06:13:42;32.50;;;16.00;;
61015;SDS011;46902;52.920;6.536;2022-10-29T06:16:08;34.78;;;15.48;;
61015;SDS011;46902;52.920;6.536;2022-10-29T06:18:34;33.97;;;15.95;;
61015;SDS011;46902;52.920;6.536;2022-10-29T06:20:59;61.72;;;17.08;;
61015;SDS011;46902;52.920;6.536;2022-10-29T06:23:25;35.50;;;14.65;;
61015;SDS011;46902;52.920;6.536;2022-10-29T06:25:54;44.88;;;18.02;;
61015;SDS011;46902;52.920;6.536;2022-10-29T06:28:22;44.75;;;17.58;;
61015;SDS011;46902;52.920;6.536;2022-10-29T06:30:48;91.15;;;18.35;;
61015;SDS011;46902;52.920;6.536;2022-10-29T06:33:14;67.70;;;18.10;;
61015;SDS011;46902;52.920;6.536;2022-10-29T06:35:44;53.30;;;18.88;;
61015;SDS011;46902;52.920;6.536;2022-10-29T06:38:10;58.15;;;19.58;;
61015;SDS011;46902;52.920;6.536;2022-10-29T06:40:36;61.22;;;19.05;;
61015;SDS011;46902;52.920;6.536;2022-10-29T06:43:03;62.80;;;18.03;;
61015;SDS011;46902;52.920;6.536;2022-10-29T06:45:30;94.55;;;21.42;;
61015;SDS011;46902;52.920;6.536;2022-10-29T06:47:56;107.43;;;19.38;;
61015;SDS011;46902;52.920;6.536;2022-10-29T06:50:22;69.57;;;17.98;;
61015;SDS011;46902;52.920;6.536;2022-10-29T06:52:55;55.58;;;17.33;;
61015;SDS011;46902;52.920;6.536;2022-10-29T06:55:25;55.22;;;16.20;;
61015;SDS011;46902;52.920;6.536;2022-10-29T06:57:54;51.45;;;18.38;;
61015;SDS011;46902;52.920;6.536;2022-10-29T07:00:31;55.65;;;18.50;;
61015;SDS011;46902;52.920;6.536;2022-10-29T07:02:57;42.67;;;15.88;;
61015;SDS011;46902;52.920;6.536;2022-10-29T07:05:24;41.97;;;16.60;;
61015;SDS011;46902;52.920;6.536;2022-10-29T07:07:57;32.92;;;14.75;;
61015;SDS011;46902;52.920;6.536;2022-10-29T07:10:24;30.85;;;16.13;;
61015;SDS011;46902;52.920;6.536;2022-10-29T07:12:51;41.58;;;19.27;;
61015;SDS011;46902;52.920;6.536;2022-10-29T07:15:17;66.38;;;17.90;;
61015;SDS011;46902;52.920;6.536;2022-10-29T07:17:52;41.63;;;18.25;;
61015;SDS011;46902;52.920;6.536;2022-10-29T07:20:29;32.05;;;16.95;;
61015;SDS011;46902;52.920;6.536;2022-10-29T07:22:57;29.20;;;15.40;;
61015;SDS011;46902;52.920;6.536;2022-10-29T07:25:24;27.90;;;16.27;;
61015;SDS011;46902;52.920;6.536;2022-10-29T07:27:50;29.08;;;16.85;;
61015;SDS011;46902;52.920;6.536;2022-10-29T07:30:15;33.80;;;16.38;;
61015;SDS011;46902;52.920;6.536;2022-10-29T07:32:41;36.17;;;17.55;;
61015;SDS011;46902;52.920;6.536;2022-10-29T07:35:07;31.10;;;17.70;;
61015;SDS011;46902;52.920;6.536;2022-10-29T07:37:33;29.63;;;18.55;;
61015;SDS011;46902;52.920;6.536;2022-10-29T07:39:58;27.08;;;16.85;;
61015;SDS011;46902;52.920;6.536;2022-10-29T07:42:24;30.23;;;17.90;;
61015;SDS011;46902;52.920;6.536;2022-10-29T07:44:49;25.95;;;17.10;;
61015;SDS011;46902;52.920;6.536;2022-10-29T07:47:15;28.23;;;17.83;;
61015;SDS011;46902;52.920;6.536;2022-10-29T07:49:41;28.45;;;16.35;;
61015;SDS011;46902;52.920;6.536;2022-10-29T07:52:06;19.85;;;13.80;;
61015;SDS011;46902;52.920;6.536;2022-10-29T07:54:32;27.42;;;15.50;;
61015;SDS011;46902;52.920;6.536;2022-10-29T07:56:58;27.10;;;16.63;;
61015;SDS011;46902;52.920;6.536;2022-10-29T07:59:23;24.02;;;14.07;;
61015;SDS011;46902;52.920;6.536;2022-10-29T08:01:49;22.50;;;13.73;;
61015;SDS011;46902;52.920;6.536;2022-10-29T08:04:14;25.33;;;14.63;;
61015;SDS011;46902;52.920;6.536;2022-10-29T08:06:40;21.88;;;13.93;;
61015;SDS011;46902;52.920;6.536;2022-10-29T08:09:06;25.67;;;15.57;;
61015;SDS011;46902;52.920;6.536;2022-10-29T08:11:32;30.67;;;16.73;;
61015;SDS011;46902;52.920;6.536;2022-10-29T08:13:58;27.38;;;15.68;;
61015;SDS011;46902;52.920;6.536;2022-10-29T08:16:24;26.92;;;16.13;;
61015;SDS011;46902;52.920;6.536;2022-10-29T08:18:50;25.55;;;15.15;;
61015;SDS011;46902;52.920;6.536;2022-10-29T08:21:15;26.65;;;15.40;;
61015;SDS011;46902;52.920;6.536;2022-10-29T08:23:42;31.25;;;15.57;;
61015;SDS011;46902;52.920;6.536;2022-10-29T08:26:07;32.45;;;15.75;;
61015;SDS011;46902;52.920;6.536;2022-10-29T08:28:33;33.22;;;16.45;;
61015;SDS011;46902;52.920;6.536;2022-10-29T08:30:59;29.05;;;15.23;;
61015;SDS011;46902;52.920;6.536;2022-10-29T08:33:24;27.58;;;15.60;;
61015;SDS011;46902;52.920;6.536;2022-10-29T08:35:50;27.10;;;15.93;;
61015;SDS011;46902;52.920;6.536;2022-10-29T08:38:16;29.88;;;14.65;;
61015;SDS011;46902;52.920;6.536;2022-10-29T08:40:52;33.30;;;16.00;;
61015;SDS011;46902;52.920;6.536;2022-10-29T08:46:14;30.27;;;15.43;;
61015;SDS011;46902;52.920;6.536;2022-10-29T08:49:00;31.50;;;14.48;;
61015;SDS011;46902;52.920;6.536;2022-10-29T08:51:33;31.13;;;15.38;;
61015;SDS011;46902;52.920;6.536;2022-10-29T08:54:02;30.58;;;14.30;;
61015;SDS011;46902;52.920;6.536;2022-10-29T08:56:29;32.42;;;15.18;;
61015;SDS011;46902;52.920;6.536;2022-10-29T08:59:19;24.45;;;13.88;;
61015;SDS011;46902;52.920;6.536;2022-10-29T09:01:46;34.15;;;14.80;;
61015;SDS011;46902;52.920;6.536;2022-10-29T09:04:25;29.00;;;14.48;;
61015;SDS011;46902;52.920;6.536;2022-10-29T09:09:57;28.95;;;14.43;;
61015;SDS011;46902;52.920;6.536;2022-10-29T09:12:47;29.58;;;15.65;;
61015;SDS011;46902;52.920;6.536;2022-10-29T09:15:49;33.97;;;15.57;;
61015;SDS011;46902;52.920;6.536;2022-10-29T09:18:34;33.55;;;16.25;;
61015;SDS011;46902;52.920;6.536;2022-10-29T09:24:42;28.58;;;15.15;;
61015;SDS011;46902;52.920;6.536;2022-10-29T09:27:47;29.27;;;14.32;;
61015;SDS011;46902;52.920;6.536;2022-10-29T09:30:28;24.75;;;14.35;;
61015;SDS011;46902;52.920;6.536;2022-10-29T09:35:30;28.05;;;14.55;;
61015;SDS011;46902;52.920;6.536;2022-10-29T09:38:05;30.75;;;14.55;;
61015;SDS011;46902;52.920;6.536;2022-10-29T09:40:38;33.83;;;15.32;;
61015;SDS011;46902;52.920;6.536;2022-10-29T09:45:49;31.08;;;16.00;;
61015;SDS011;46902;52.920;6.536;2022-10-29T09:54:18;27.10;;;13.88;;
61015;SDS011;46902;52.920;6.536;2022-10-29T09:56:45;31.25;;;15.55;;
61015;SDS011;46902;52.920;6.536;2022-10-29T09:59:16;35.05;;;15.82;;
61015;SDS011;46902;52.920;6.536;2022-10-29T10:01:55;32.85;;;16.15;;
61015;SDS011;46902;52.920;6.536;2022-10-29T10:04:25;32.22;;;14.57;;
61015;SDS011;46902;52.920;6.536;2022-10-29T10:07:07;33.13;;;15.95;;
61015;SDS011;46902;52.920;6.536;2022-10-29T10:12:23;35.20;;;15.27;;
61015;SDS011;46902;52.920;6.536;2022-10-29T10:20:29;26.73;;;14.00;;
61015;SDS011;46902;52.920;6.536;2022-10-29T10:23:21;27.23;;;13.75;;
61015;SDS011;46902;52.920;6.536;2022-10-29T10:25:52;21.17;;;13.38;;
61015;SDS011;46902;52.920;6.536;2022-10-29T10:28:23;27.20;;;14.13;;
61015;SDS011;46902;52.920;6.536;2022-10-29T10:31:04;26.83;;;12.57;;
61015;SDS011;46902;52.920;6.536;2022-10-29T10:33:33;26.58;;;13.50;;
61015;SDS011;46902;52.920;6.536;2022-10-29T10:36:04;24.73;;;13.10;;
61015;SDS011;46902;52.920;6.536;2022-10-29T10:41:27;26.33;;;14.57;;
61015;SDS011;46902;52.920;6.536;2022-10-29T10:43:57;26.42;;;12.10;;
61015;SDS011;46902;52.920;6.536;2022-10-29T10:46:26;26.30;;;12.65;;
61015;SDS011;46902;52.920;6.536;2022-10-29T10:51:32;22.15;;;12.02;;
61015;SDS011;46902;52.920;6.536;2022-10-29T10:54:00;20.25;;;11.60;;
61015;SDS011;46902;52.920;6.536;2022-10-29T10:56:30;26.63;;;11.25;;
61015;SDS011;46902;52.920;6.536;2022-10-29T10:59:02;19.52;;;11.13;;
61015;SDS011;46902;52.920;6.536;2022-10-29T11:04:19;25.80;;;11.13;;
61015;SDS011;46902;52.920;6.536;2022-10-29T11:06:52;24.30;;;11.30;;
61015;SDS011;46902;52.920;6.536;2022-10-29T11:09:24;23.58;;;9.98;;
61015;SDS011;46902;52.920;6.536;2022-10-29T11:12:01;24.17;;;11.07;;
61015;SDS011;46902;52.920;6.536;2022-10-29T11:14:32;23.15;;;10.32;;
61015;SDS011;46902;52.920;6.536;2022-10-29T11:17:02;22.05;;;10.32;;
61015;SDS011;46902;52.920;6.536;2022-10-29T11:19:32;24.63;;;10.32;;
61015;SDS011;46902;52.920;6.536;2022-10-29T11:22:16;22.27;;;10.68;;
61015;SDS011;46902;52.920;6.536;2022-10-29T11:24:54;19.88;;;9.48;;
61015;SDS011;46902;52.920;6.536;2022-10-29T11:27:40;20.58;;;9.93;;
61015;SDS011;46902;52.920;6.536;2022-10-29T11:30:13;20.77;;;10.07;;
61015;SDS011;46902;52.920;6.536;2022-10-29T11:38:18;20.08;;;9.73;;
61015;SDS011;46902;52.920;6.536;2022-10-29T11:43:19;24.75;;;10.57;;
61015;SDS011;46902;52.920;6.536;2022-10-29T11:48:26;21.85;;;9.45;;
61015;SDS011;46902;52.920;6.536;2022-10-29T12:16:02;19.92;;;10.15;;
61015;SDS011;46902;52.920;6.536;2022-10-29T12:18:35;19.48;;;10.02;;
61015;SDS011;46902;52.920;6.536;2022-10-29T12:21:12;24.67;;;10.95;;
61015;SDS011;46902;52.920;6.536;2022-10-29T12:23:58;23.35;;;10.45;;
61015;SDS011;46902;52.920;6.536;2022-10-29T12:26:53;22.60;;;9.93;;
61015;SDS011;46902;52.920;6.536;2022-10-29T12:29:59;30.58;;;11.20;;
61015;SDS011;46902;52.920;6.536;2022-10-29T12:32:24;23.08;;;10.90;;
61015;SDS011;46902;52.920;6.536;2022-10-29T12:34:58;20.98;;;10.90;;
61015;SDS011;46902;52.920;6.536;2022-10-29T12:40:20;27.20;;;10.55;;
61015;SDS011;46902;52.920;6.536;2022-10-29T12:42:49;21.58;;;10.52;;
61015;SDS011;46902;52.920;6.536;2022-10-29T12:53:31;30.90;;;11.15;;
61015;SDS011;46902;52.920;6.536;2022-10-29T12:56:07;22.83;;;10.25;;
61015;SDS011;46902;52.920;6.536;2022-10-29T13:01:06;27.50;;;10.40;;
61015;SDS011;46902;52.920;6.536;2022-10-29T13:11:48;27.55;;;10.68;;
61015;SDS011;46902;52.920;6.536;2022-10-29T13:14:20;28.63;;;10.80;;
61015;SDS011;46902;52.920;6.536;2022-10-29T13:16:55;22.27;;;10.43;;
61015;SDS011;46902;52.920;6.536;2022-10-29T13:19:27;26.20;;;11.00;;
61015;SDS011;46902;52.920;6.536;2022-10-29T13:24:41;20.35;;;10.88;;
61015;SDS011;46902;52.920;6.536;2022-10-29T13:29:42;21.88;;;10.98;;
61015;SDS011;46902;52.920;6.536;2022-10-29T13:32:32;27.13;;;10.95;;
61015;SDS011;46902;52.920;6.536;2022-10-29T13:42:47;24.13;;;11.38;;
61015;SDS011;46902;52.920;6.536;2022-10-29T13:45:24;25.10;;;11.30;;
61015;SDS011;46902;52.920;6.536;2022-10-29T13:47:50;23.02;;;10.68;;
61015;SDS011;46902;52.920;6.536;2022-10-29T13:50:16;22.45;;;10.30;;
61015;SDS011;46902;52.920;6.536;2022-10-29T13:52:44;26.90;;;11.20;;
61015;SDS011;46902;52.920;6.536;2022-10-29T13:55:15;22.63;;;10.52;;
61015;SDS011;46902;52.920;6.536;2022-10-29T14:00:26;25.27;;;10.45;;
61015;SDS011;46902;52.920;6.536;2022-10-29T14:02:59;19.65;;;10.27;;
61015;SDS011;46902;52.920;6.536;2022-10-29T14:05:29;24.33;;;11.07;;
61015;SDS011;46902;52.920;6.536;2022-10-29T14:10:45;20.33;;;10.13;;
61015;SDS011;46902;52.920;6.536;2022-10-29T14:15:38;26.65;;;10.55;;
61015;SDS011;46902;52.920;6.536;2022-10-29T14:18:26;26.10;;;11.70;;
61015;SDS011;46902;52.920;6.536;2022-10-29T14:20:55;22.00;;;10.52;;
61015;SDS011;46902;52.920;6.536;2022-10-29T14:23:23;27.90;;;11.18;;
61015;SDS011;46902;52.920;6.536;2022-10-29T14:25:50;21.77;;;10.70;;
61015;SDS011;46902;52.920;6.536;2022-10-29T14:33:28;22.60;;;10.82;;
61015;SDS011;46902;52.920;6.536;2022-10-29T14:35:58;24.55;;;12.02;;
61015;SDS011;46902;52.920;6.536;2022-10-29T14:38:47;21.02;;;11.40;;
61015;SDS011;46902;52.920;6.536;2022-10-29T14:41:24;22.13;;;11.35;;
61015;SDS011;46902;52.920;6.536;2022-10-29T14:44:36;25.67;;;11.98;;
61015;SDS011;46902;52.920;6.536;2022-10-29T14:46:51;24.85;;;12.02;;
61015;SDS011;46902;52.920;6.536;2022-10-29T14:49:32;29.45;;;12.15;;
61015;SDS011;46902;52.920;6.536;2022-10-29T14:52:03;23.27;;;11.30;;
61015;SDS011;46902;52.920;6.536;2022-10-29T14:54:32;22.73;;;11.98;;
61015;SDS011;46902;52.920;6.536;2022-10-29T14:57:02;23.45;;;11.70;;
61015;SDS011;46902;52.920;6.536;2022-10-29T14:59:33;21.70;;;11.48;;
61015;SDS011;46902;52.920;6.536;2022-10-29T15:02:00;24.17;;;11.35;;
61015;SDS011;46902;52.920;6.536;2022-10-29T15:04:34;21.13;;;11.48;;
61015;SDS011;46902;52.920;6.536;2022-10-29T15:07:13;27.58;;;12.85;;
61015;SDS011;46902;52.920;6.536;2022-10-29T15:09:49;24.75;;;11.50;;
61015;SDS011;46902;52.920;6.536;2022-10-29T15:12:19;25.52;;;11.73;;
61015;SDS011;46902;52.920;6.536;2022-10-29T15:14:52;22.27;;;11.55;;
61015;SDS011;46902;52.920;6.536;2022-10-29T15:17:22;23.30;;;10.57;;
61015;SDS011;46902;52.920;6.536;2022-10-29T15:19:58;29.02;;;12.25;;
61015;SDS011;46902;52.920;6.536;2022-10-29T15:22:33;22.08;;;11.48;;
61015;SDS011;46902;52.920;6.536;2022-10-29T15:25:02;22.95;;;11.25;;
61015;SDS011;46902;52.920;6.536;2022-10-29T15:27:30;22.45;;;11.45;;
61015;SDS011;46902;52.920;6.536;2022-10-29T15:29:58;23.17;;;11.07;;
61015;SDS011;46902;52.920;6.536;2022-10-29T15:32:25;20.98;;;11.13;;
61015;SDS011;46902;52.920;6.536;2022-10-29T15:34:52;19.75;;;10.60;;
61015;SDS011;46902;52.920;6.536;2022-10-29T15:40:01;23.33;;;11.10;;
61015;SDS011;46902;52.920;6.536;2022-10-29T15:42:33;21.73;;;10.25;;
61015;SDS011;46902;52.920;6.536;2022-10-29T15:47:33;19.67;;;9.98;;
61015;SDS011;46902;52.920;6.536;2022-10-29T15:50:00;23.15;;;11.15;;
61015;SDS011;46902;52.920;6.536;2022-10-29T15:52:28;19.40;;;11.05;;
61015;SDS011;46902;52.920;6.536;2022-10-29T15:54:58;21.80;;;10.35;;
61015;SDS011;46902;52.920;6.536;2022-10-29T15:57:24;22.08;;;10.38;;
61015;SDS011;46902;52.920;6.536;2022-10-29T15:59:50;21.85;;;9.73;;
61015;SDS011;46902;52.920;6.536;2022-10-29T16:02:21;22.73;;;10.63;;
61015;SDS011;46902;52.920;6.536;2022-10-29T16:04:48;27.83;;;10.85;;
61015;SDS011;46902;52.920;6.536;2022-10-29T16:07:14;18.92;;;9.50;;
61015;SDS011;46902;52.920;6.536;2022-10-29T16:09:47;19.55;;;10.05;;
61015;SDS011;46902;52.920;6.536;2022-10-29T16:12:15;22.73;;;9.52;;
61015;SDS011;46902;52.920;6.536;2022-10-29T16:14:41;19.92;;;9.93;;
61015;SDS011;46902;52.920;6.536;2022-10-29T16:17:11;20.00;;;9.77;;
61015;SDS011;46902;52.920;6.536;2022-10-29T16:19:38;25.30;;;9.90;;
61015;SDS011;46902;52.920;6.536;2022-10-29T16:22:04;19.58;;;9.13;;
61015;SDS011;46902;52.920;6.536;2022-10-29T16:24:30;16.70;;;8.02;;
61015;SDS011;46902;52.920;6.536;2022-10-29T16:26:57;22.13;;;8.77;;
61015;SDS011;46902;52.920;6.536;2022-10-29T16:29:23;18.92;;;8.10;;
61015;SDS011;46902;52.920;6.536;2022-10-29T16:31:49;23.40;;;9.05;;
61015;SDS011;46902;52.920;6.536;2022-10-29T16:34:14;18.10;;;8.95;;
61015;SDS011;46902;52.920;6.536;2022-10-29T16:36:40;19.38;;;9.00;;
61015;SDS011;46902;52.920;6.536;2022-10-29T16:39:05;21.90;;;9.90;;
61015;SDS011;46902;52.920;6.536;2022-10-29T16:41:31;21.90;;;8.93;;
61015;SDS011;46902;52.920;6.536;2022-10-29T16:43:57;13.27;;;8.38;;
61015;SDS011;46902;52.920;6.536;2022-10-29T16:46:23;17.77;;;8.55;;
61015;SDS011;46902;52.920;6.536;2022-10-29T16:48:48;22.02;;;8.98;;
61015;SDS011;46902;52.920;6.536;2022-10-29T16:51:14;20.13;;;9.13;;
61015;SDS011;46902;52.920;6.536;2022-10-29T16:53:40;20.95;;;8.52;;
61015;SDS011;46902;52.920;6.536;2022-10-29T16:56:05;21.13;;;9.52;;
61015;SDS011;46902;52.920;6.536;2022-10-29T16:58:31;15.52;;;8.15;;